sensor_id;sensor_type;location;lat;lon;timestamp;temperature;humidity
41256;DHT22;26989;45.524;10.938;2023-10-19T00:00:33;11.30;99.90
41256;DHT22;26989;45.524;10.938;2023-10-19T00:03:00;11.30;99.90
41256;DHT22;26989;45.524;10.938;2023-10-19T00:05:29;11.30;99.90
41256;DHT22;26989;45.524;10.938;2023-10-19T00:07:59;11.30;99.90
41256;DHT22;26989;45.524;10.938;2023-10-19T00:10:31;11.30;99.90
41256;DHT22;26989;45.524;10.938;2023-10-19T00:13:05;11.30;99.90
41256;DHT22;26989;45.524;10.938;2023-10-19T00:15:32;11.30;99.90
41256;DHT22;26989;45.524;10.938;2023-10-19T00:18:07;11.30;99.90
41256;DHT22;26989;45.524;10.938;2023-10-19T00:21:01;11.20;99.90
41256;DHT22;26989;45.524;10.938;2023-10-19T00:23:56;11.30;99.90
41256;DHT22;26989;45.524;10.938;2023-10-19T00:26:25;11.20;99.90
41256;DHT22;26989;45.524;10.938;2023-10-19T00:28:53;11.20;99.90
41256;DHT22;26989;45.524;10.938;2023-10-19T00:31:26;11.20;99.90
41256;DHT22;26989;45.524;10.938;2023-10-19T00:34:00;11.20;99.90
41256;DHT22;26989;45.524;10.938;2023-10-19T00:36:27;11.10;99.90
41256;DHT22;26989;45.524;10.938;2023-10-19T00:38:57;11.20;99.90
41256;DHT22;26989;45.524;10.938;2023-10-19T00:41:27;11.20;99.90
41256;DHT22;26989;45.524;10.938;2023-10-19T00:43:58;11.20;99.90
41256;DHT22;26989;45.524;10.938;2023-10-19T00:46:34;11.20;99.90
41256;DHT22;26989;45.524;10.938;2023-10-19T00:49:11;11.20;99.90
41256;DHT22;26989;45.524;10.938;2023-10-19T00:51:48;11.20;99.90
41256;DHT22;26989;45.524;10.938;2023-10-19T00:57:09;11.20;99.90
41256;DHT22;26989;45.524;10.938;2023-10-19T00:59:38;11.20;99.90
41256;DHT22;26989;45.524;10.938;2023-10-19T01:02:10;11.10;99.90
41256;DHT22;26989;45.524;10.938;2023-10-19T01:04:53;11.10;99.90
41256;DHT22;26989;45.524;10.938;2023-10-19T01:07:29;11.20;99.90
41256;DHT22;26989;45.524;10.938;2023-10-19T01:09:58;11.20;99.90
41256;DHT22;26989;45.524;10.938;2023-10-19T01:12:27;11.20;99.90
41256;DHT22;26989;45.524;10.938;2023-10-19T01:17:35;11.20;99.90
41256;DHT22;26989;45.524;10.938;2023-10-19T01:20:08;11.20;99.90
41256;DHT22;26989;45.524;10.938;2023-10-19T01:25:21;11.20;99.90
41256;DHT22;26989;45.524;10.938;2023-10-19T01:28:08;11.20;99.90
41256;DHT22;26989;45.524;10.938;2023-10-19T01:30:36;11.20;99.90
41256;DHT22;26989;45.524;10.938;2023-10-19T01:33:04;11.20;99.90
41256;DHT22;26989;45.524;10.938;2023-10-19T01:35:40;11.20;99.90
41256;DHT22;26989;45.524;10.938;2023-10-19T01:38:25;11.20;99.90
41256;DHT22;26989;45.524;10.938;2023-10-19T01:40:52;11.20;99.90
41256;DHT22;26989;45.524;10.938;2023-10-19T01:43:21;11.20;99.90
41256;DHT22;26989;45.524;10.938;2023-10-19T01:45:48;11.20;99.90
41256;DHT22;26989;45.524;10.938;2023-10-19T01:48:21;11.20;99.90
41256;DHT22;26989;45.524;10.938;2023-10-19T01:50:49;11.20;99.90
41256;DHT22;26989;45.524;10.938;2023-10-19T01:53:17;11.10;99.90
41256;DHT22;26989;45.524;10.938;2023-10-19T01:55:44;11.10;99.90
41256;DHT22;26989;45.524;10.938;2023-10-19T01:58:14;11.10;99.90
41256;DHT22;26989;45.524;10.938;2023-10-19T02:00:41;11.10;99.90
41256;DHT22;26989;45.524;10.938;2023-10-19T02:03:10;11.10;99.90
41256;DHT22;26989;45.524;10.938;2023-10-19T02:05:37;11.00;99.90
41256;DHT22;26989;45.524;10.938;2023-10-19T02:08:08;10.90;99.90
41256;DHT22;26989;45.524;10.938;2023-10-19T02:10:35;11.00;99.90
41256;DHT22;26989;45.524;10.938;2023-10-19T02:13:04;11.10;99.90
41256;DHT22;26989;45.524;10.938;2023-10-19T02:15:36;11.10;99.90
41256;DHT22;26989;45.524;10.938;2023-10-19T02:18:03;11.20;99.90
41256;DHT22;26989;45.524;10.938;2023-10-19T02:20:30;11.10;99.90
41256;DHT22;26989;45.524;10.938;2023-10-19T02:23:07;11.10;99.90
41256;DHT22;26989;45.524;10.938;2023-10-19T02:25:34;11.10;99.90
41256;DHT22;26989;45.524;10.938;2023-10-19T02:28:05;11.10;99.90
41256;DHT22;26989;45.524;10.938;2023-10-19T02:30:35;11.10;99.90
41256;DHT22;26989;45.524;10.938;2023-10-19T02:33:02;11.00;99.90
41256;DHT22;26989;45.524;10.938;2023-10-19T02:35:32;10.90;99.90
41256;DHT22;26989;45.524;10.938;2023-10-19T02:38:01;10.80;99.90
41256;DHT22;26989;45.524;10.938;2023-10-19T02:40:28;10.90;99.90
41256;DHT22;26989;45.524;10.938;2023-10-19T02:43:00;10.80;99.90
41256;DHT22;26989;45.524;10.938;2023-10-19T02:45:30;10.80;99.90
41256;DHT22;26989;45.524;10.938;2023-10-19T02:47:58;10.80;99.90
41256;DHT22;26989;45.524;10.938;2023-10-19T02:50:25;10.80;99.90
41256;DHT22;26989;45.524;10.938;2023-10-19T02:52:53;10.80;99.90
41256;DHT22;26989;45.524;10.938;2023-10-19T02:55:20;10.80;99.90
41256;DHT22;26989;45.524;10.938;2023-10-19T02:57:50;10.80;99.90
41256;DHT22;26989;45.524;10.938;2023-10-19T03:00:17;10.90;99.90
41256;DHT22;26989;45.524;10.938;2023-10-19T03:02:48;10.90;99.90
41256;DHT22;26989;45.524;10.938;2023-10-19T03:05:15;11.00;99.90
41256;DHT22;26989;45.524;10.938;2023-10-19T03:07:44;11.00;99.90
41256;DHT22;26989;45.524;10.938;2023-10-19T03:10:11;11.10;99.90
41256;DHT22;26989;45.524;10.938;2023-10-19T03:12:56;11.20;99.90
41256;DHT22;26989;45.524;10.938;2023-10-19T03:15:24;11.30;99.90
41256;DHT22;26989;45.524;10.938;2023-10-19T03:17:51;11.30;99.90
41256;DHT22;26989;45.524;10.938;2023-10-19T03:20:18;11.30;99.90
41256;DHT22;26989;45.524;10.938;2023-10-19T03:22:50;11.40;99.90
41256;DHT22;26989;45.524;10.938;2023-10-19T03:25:17;11.30;99.90
41256;DHT22;26989;45.524;10.938;2023-10-19T03:28:03;11.40;99.90
41256;DHT22;26989;45.524;10.938;2023-10-19T03:30:38;11.40;99.90
41256;DHT22;26989;45.524;10.938;2023-10-19T03:33:08;11.40;99.90
41256;DHT22;26989;45.524;10.938;2023-10-19T03:35:39;11.40;99.90
41256;DHT22;26989;45.524;10.938;2023-10-19T03:38:08;11.40;99.90
41256;DHT22;26989;45.524;10.938;2023-10-19T03:40:43;11.40;99.90
41256;DHT22;26989;45.524;10.938;2023-10-19T03:43:18;11.40;99.90
41256;DHT22;26989;45.524;10.938;2023-10-19T03:45:48;11.40;99.90
41256;DHT22;26989;45.524;10.938;2023-10-19T03:48:19;11.40;99.90
41256;DHT22;26989;45.524;10.938;2023-10-19T03:51:04;11.40;99.90
41256;DHT22;26989;45.524;10.938;2023-10-19T03:53:31;11.40;99.90
41256;DHT22;26989;45.524;10.938;2023-10-19T03:55:59;11.40;99.90
41256;DHT22;26989;45.524;10.938;2023-10-19T03:58:26;11.40;99.90
41256;DHT22;26989;45.524;10.938;2023-10-19T04:00:57;11.40;99.90
41256;DHT22;26989;45.524;10.938;2023-10-19T04:03:28;11.40;99.90
41256;DHT22;26989;45.524;10.938;2023-10-19T04:05:57;11.40;99.90
41256;DHT22;26989;45.524;10.938;2023-10-19T04:08:27;11.40;99.90
41256;DHT22;26989;45.524;10.938;2023-10-19T04:10:57;11.40;99.90
41256;DHT22;26989;45.524;10.938;2023-10-19T04:14:00;11.40;99.90
41256;DHT22;26989;45.524;10.938;2023-10-19T04:16:30;11.40;99.90
41256;DHT22;26989;45.524;10.938;2023-10-19T04:18:58;11.30;99.90
41256;DHT22;26989;45.524;10.938;2023-10-19T04:21:25;11.30;99.90
41256;DHT22;26989;45.524;10.938;2023-10-19T04:23:52;11.30;99.90
41256;DHT22;26989;45.524;10.938;2023-10-19T04:26:19;11.30;99.90
41256;DHT22;26989;45.524;10.938;2023-10-19T04:28:46;11.20;99.90
41256;DHT22;26989;45.524;10.938;2023-10-19T04:31:19;11.20;99.90
41256;DHT22;26989;45.524;10.938;2023-10-19T04:33:46;11.20;99.90
41256;DHT22;26989;45.524;10.938;2023-10-19T04:36:14;11.20;99.90
41256;DHT22;26989;45.524;10.938;2023-10-19T04:38:42;11.10;99.90
41256;DHT22;26989;45.524;10.938;2023-10-19T04:41:10;11.10;99.90
41256;DHT22;26989;45.524;10.938;2023-10-19T04:43:39;11.20;99.90
41256;DHT22;26989;45.524;10.938;2023-10-19T04:46:10;11.20;99.90
41256;DHT22;26989;45.524;10.938;2023-10-19T04:48:39;11.20;99.90
41256;DHT22;26989;45.524;10.938;2023-10-19T04:51:10;11.10;99.90
41256;DHT22;26989;45.524;10.938;2023-10-19T04:53:37;11.20;99.90
41256;DHT22;26989;45.524;10.938;2023-10-19T04:56:05;11.20;99.90
41256;DHT22;26989;45.524;10.938;2023-10-19T04:58:35;11.20;99.90
41256;DHT22;26989;45.524;10.938;2023-10-19T05:01:03;11.20;99.90
41256;DHT22;26989;45.524;10.938;2023-10-19T05:03:31;11.30;99.90
41256;DHT22;26989;45.524;10.938;2023-10-19T05:05:59;11.30;99.90
41256;DHT22;26989;45.524;10.938;2023-10-19T05:08:26;11.30;99.90
41256;DHT22;26989;45.524;10.938;2023-10-19T05:10:55;11.40;99.90
41256;DHT22;26989;45.524;10.938;2023-10-19T05:13:24;11.50;99.90
41256;DHT22;26989;45.524;10.938;2023-10-19T05:15:55;11.40;99.90
41256;DHT22;26989;45.524;10.938;2023-10-19T05:18:23;11.50;99.90
41256;DHT22;26989;45.524;10.938;2023-10-19T05:20:50;11.50;99.90
41256;DHT22;26989;45.524;10.938;2023-10-19T05:23:23;11.50;99.90
41256;DHT22;26989;45.524;10.938;2023-10-19T05:26:09;11.60;99.90
41256;DHT22;26989;45.524;10.938;2023-10-19T05:28:36;11.60;99.90
41256;DHT22;26989;45.524;10.938;2023-10-19T05:31:03;11.60;99.90
41256;DHT22;26989;45.524;10.938;2023-10-19T05:33:31;11.60;99.90
41256;DHT22;26989;45.524;10.938;2023-10-19T05:36:07;11.60;99.90
41256;DHT22;26989;45.524;10.938;2023-10-19T05:38:34;11.60;99.90
41256;DHT22;26989;45.524;10.938;2023-10-19T05:41:01;11.60;99.90
41256;DHT22;26989;45.524;10.938;2023-10-19T05:43:29;11.60;99.90
41256;DHT22;26989;45.524;10.938;2023-10-19T05:45:57;11.70;99.90
41256;DHT22;26989;45.524;10.938;2023-10-19T05:48:24;11.60;99.90
41256;DHT22;26989;45.524;10.938;2023-10-19T05:50:51;11.60;99.90
41256;DHT22;26989;45.524;10.938;2023-10-19T05:53:18;11.60;99.90
41256;DHT22;26989;45.524;10.938;2023-10-19T05:55:45;11.60;99.90
41256;DHT22;26989;45.524;10.938;2023-10-19T05:58:12;11.60;99.90
41256;DHT22;26989;45.524;10.938;2023-10-19T06:00:39;11.50;99.90
41256;DHT22;26989;45.524;10.938;2023-10-19T06:03:07;11.50;99.90
41256;DHT22;26989;45.524;10.938;2023-10-19T06:05:33;11.50;99.90
41256;DHT22;26989;45.524;10.938;2023-10-19T06:08:00;11.50;99.90
41256;DHT22;26989;45.524;10.938;2023-10-19T06:10:28;11.60;99.90
41256;DHT22;26989;45.524;10.938;2023-10-19T06:12:55;11.60;99.90
41256;DHT22;26989;45.524;10.938;2023-10-19T06:15:24;11.60;99.90
41256;DHT22;26989;45.524;10.938;2023-10-19T06:17:52;11.60;99.90
41256;DHT22;26989;45.524;10.938;2023-10-19T06:20:20;11.70;99.90
41256;DHT22;26989;45.524;10.938;2023-10-19T06:22:52;11.70;99.90
41256;DHT22;26989;45.524;10.938;2023-10-19T06:25:20;11.70;99.90
41256;DHT22;26989;45.524;10.938;2023-10-19T06:27:51;11.70;99.90
41256;DHT22;26989;45.524;10.938;2023-10-19T06:30:19;11.80;99.90
41256;DHT22;26989;45.524;10.938;2023-10-19T06:33:03;11.80;99.90
41256;DHT22;26989;45.524;10.938;2023-10-19T06:35:31;11.80;99.90
41256;DHT22;26989;45.524;10.938;2023-10-19T06:38:00;11.80;99.90
41256;DHT22;26989;45.524;10.938;2023-10-19T06:40:28;11.80;99.90
41256;DHT22;26989;45.524;10.938;2023-10-19T06:42:56;11.90;99.90
41256;DHT22;26989;45.524;10.938;2023-10-19T06:45:25;12.00;99.90
41256;DHT22;26989;45.524;10.938;2023-10-19T06:47:56;12.10;99.90
41256;DHT22;26989;45.524;10.938;2023-10-19T06:50:24;12.10;99.90
41256;DHT22;26989;45.524;10.938;2023-10-19T06:52:52;12.20;99.90
41256;DHT22;26989;45.524;10.938;2023-10-19T06:55:21;12.30;99.90
41256;DHT22;26989;45.524;10.938;2023-10-19T06:57:53;12.30;99.90
41256;DHT22;26989;45.524;10.938;2023-10-19T07:00:24;12.30;99.90
41256;DHT22;26989;45.524;10.938;2023-10-19T07:02:57;12.30;99.90
41256;DHT22;26989;45.524;10.938;2023-10-19T07:05:27;12.40;99.90
41256;DHT22;26989;45.524;10.938;2023-10-19T07:07:57;12.40;99.90
41256;DHT22;26989;45.524;10.938;2023-10-19T07:10:26;12.40;99.90
41256;DHT22;26989;45.524;10.938;2023-10-19T07:12:55;12.50;99.90
41256;DHT22;26989;45.524;10.938;2023-10-19T07:15:23;12.60;99.90
41256;DHT22;26989;45.524;10.938;2023-10-19T07:17:52;12.70;99.90
41256;DHT22;26989;45.524;10.938;2023-10-19T07:20:21;12.80;99.90
41256;DHT22;26989;45.524;10.938;2023-10-19T07:23:03;12.90;99.90
41256;DHT22;26989;45.524;10.938;2023-10-19T07:25:37;12.90;99.90
41256;DHT22;26989;45.524;10.938;2023-10-19T07:28:14;13.00;99.90
41256;DHT22;26989;45.524;10.938;2023-10-19T07:30:42;12.90;99.90
41256;DHT22;26989;45.524;10.938;2023-10-19T07:33:10;12.90;99.90
41256;DHT22;26989;45.524;10.938;2023-10-19T07:35:38;12.90;99.90
41256;DHT22;26989;45.524;10.938;2023-10-19T07:38:05;12.80;99.90
41256;DHT22;26989;45.524;10.938;2023-10-19T07:40:35;12.60;99.90
41256;DHT22;26989;45.524;10.938;2023-10-19T07:43:02;12.50;99.90
41256;DHT22;26989;45.524;10.938;2023-10-19T07:45:33;12.50;99.90
41256;DHT22;26989;45.524;10.938;2023-10-19T07:48:02;12.40;99.90
41256;DHT22;26989;45.524;10.938;2023-10-19T07:50:37;12.30;99.90
41256;DHT22;26989;45.524;10.938;2023-10-19T07:53:04;12.30;99.90
41256;DHT22;26989;45.524;10.938;2023-10-19T07:55:32;12.20;99.90
41256;DHT22;26989;45.524;10.938;2023-10-19T07:57:59;12.30;99.90
41256;DHT22;26989;45.524;10.938;2023-10-19T08:00:30;12.30;99.90
41256;DHT22;26989;45.524;10.938;2023-10-19T08:02:58;12.20;99.90
41256;DHT22;26989;45.524;10.938;2023-10-19T08:05:26;12.20;99.90
41256;DHT22;26989;45.524;10.938;2023-10-19T08:07:53;12.20;99.90
41256;DHT22;26989;45.524;10.938;2023-10-19T08:10:20;12.20;99.90
41256;DHT22;26989;45.524;10.938;2023-10-19T08:12:49;12.10;99.90
41256;DHT22;26989;45.524;10.938;2023-10-19T08:15:17;12.10;99.90
41256;DHT22;26989;45.524;10.938;2023-10-19T08:17:46;12.10;99.90
41256;DHT22;26989;45.524;10.938;2023-10-19T08:20:14;11.90;99.90
41256;DHT22;26989;45.524;10.938;2023-10-19T08:22:53;11.90;99.90
41256;DHT22;26989;45.524;10.938;2023-10-19T08:25:20;11.90;99.90
41256;DHT22;26989;45.524;10.938;2023-10-19T08:27:48;11.90;99.90
41256;DHT22;26989;45.524;10.938;2023-10-19T08:30:21;11.90;99.90
41256;DHT22;26989;45.524;10.938;2023-10-19T08:32:52;12.00;99.90
41256;DHT22;26989;45.524;10.938;2023-10-19T08:35:21;12.00;99.90
41256;DHT22;26989;45.524;10.938;2023-10-19T08:37:52;12.00;99.90
41256;DHT22;26989;45.524;10.938;2023-10-19T08:40:20;12.10;99.90
41256;DHT22;26989;45.524;10.938;2023-10-19T08:42:50;12.20;99.90
41256;DHT22;26989;45.524;10.938;2023-10-19T08:45:17;12.30;99.90
41256;DHT22;26989;45.524;10.938;2023-10-19T08:48:01;12.50;99.90
41256;DHT22;26989;45.524;10.938;2023-10-19T08:50:31;13.00;99.90
41256;DHT22;26989;45.524;10.938;2023-10-19T08:52:59;13.70;99.90
41256;DHT22;26989;45.524;10.938;2023-10-19T08:55:28;14.20;99.90
41256;DHT22;26989;45.524;10.938;2023-10-19T08:58:15;14.80;99.90
41256;DHT22;26989;45.524;10.938;2023-10-19T09:00:50;14.80;99.90
41256;DHT22;26989;45.524;10.938;2023-10-19T09:03:24;14.80;99.90
41256;DHT22;26989;45.524;10.938;2023-10-19T09:05:52;14.90;99.90
41256;DHT22;26989;45.524;10.938;2023-10-19T09:08:19;14.90;99.90
41256;DHT22;26989;45.524;10.938;2023-10-19T09:10:50;14.70;99.90
41256;DHT22;26989;45.524;10.938;2023-10-19T09:13:21;14.60;99.90
41256;DHT22;26989;45.524;10.938;2023-10-19T09:15:51;14.50;99.90
41256;DHT22;26989;45.524;10.938;2023-10-19T09:18:25;14.30;99.90
41256;DHT22;26989;45.524;10.938;2023-10-19T09:20:56;14.10;99.90
41256;DHT22;26989;45.524;10.938;2023-10-19T09:23:35;14.00;99.90
41256;DHT22;26989;45.524;10.938;2023-10-19T09:26:04;13.80;99.90
41256;DHT22;26989;45.524;10.938;2023-10-19T09:28:37;13.70;99.90
41256;DHT22;26989;45.524;10.938;2023-10-19T09:31:06;13.60;99.90
41256;DHT22;26989;45.524;10.938;2023-10-19T09:33:36;13.60;99.90
41256;DHT22;26989;45.524;10.938;2023-10-19T09:36:07;13.50;99.90
41256;DHT22;26989;45.524;10.938;2023-10-19T09:38:45;13.50;99.90
41256;DHT22;26989;45.524;10.938;2023-10-19T09:41:20;13.40;99.90
41256;DHT22;26989;45.524;10.938;2023-10-19T09:43:49;13.40;99.90
41256;DHT22;26989;45.524;10.938;2023-10-19T09:46:26;13.40;99.90
41256;DHT22;26989;45.524;10.938;2023-10-19T09:48:53;13.40;99.90
41256;DHT22;26989;45.524;10.938;2023-10-19T09:51:21;13.40;99.90
41256;DHT22;26989;45.524;10.938;2023-10-19T09:54:06;13.40;99.90
41256;DHT22;26989;45.524;10.938;2023-10-19T09:56:41;13.30;99.90
41256;DHT22;26989;45.524;10.938;2023-10-19T09:59:44;13.40;99.90
41256;DHT22;26989;45.524;10.938;2023-10-19T10:02:15;13.40;99.90
41256;DHT22;26989;45.524;10.938;2023-10-19T10:04:44;13.40;99.90
41256;DHT22;26989;45.524;10.938;2023-10-19T10:07:17;13.40;99.90
41256;DHT22;26989;45.524;10.938;2023-10-19T10:10:04;13.50;99.90
41256;DHT22;26989;45.524;10.938;2023-10-19T10:12:31;13.70;99.90
41256;DHT22;26989;45.524;10.938;2023-10-19T10:15:05;13.80;99.90
41256;DHT22;26989;45.524;10.938;2023-10-19T10:17:36;13.90;99.90
41256;DHT22;26989;45.524;10.938;2023-10-19T10:22:37;13.80;99.90
41256;DHT22;26989;45.524;10.938;2023-10-19T10:25:04;13.80;99.90
41256;DHT22;26989;45.524;10.938;2023-10-19T10:27:32;13.80;99.90
41256;DHT22;26989;45.524;10.938;2023-10-19T10:30:01;13.90;99.90
41256;DHT22;26989;45.524;10.938;2023-10-19T10:32:53;13.90;99.90
41256;DHT22;26989;45.524;10.938;2023-10-19T10:35:55;13.90;99.90
41256;DHT22;26989;45.524;10.938;2023-10-19T10:38:21;13.80;99.90
41256;DHT22;26989;45.524;10.938;2023-10-19T10:40:49;13.70;99.90
41256;DHT22;26989;45.524;10.938;2023-10-19T10:43:18;13.60;99.90
41256;DHT22;26989;45.524;10.938;2023-10-19T10:45:45;13.70;99.90
41256;DHT22;26989;45.524;10.938;2023-10-19T10:48:18;13.70;99.90
41256;DHT22;26989;45.524;10.938;2023-10-19T10:50:48;13.70;99.90
41256;DHT22;26989;45.524;10.938;2023-10-19T10:53:15;13.60;99.90
41256;DHT22;26989;45.524;10.938;2023-10-19T10:55:42;13.50;99.90
41256;DHT22;26989;45.524;10.938;2023-10-19T10:58:14;13.70;99.90
41256;DHT22;26989;45.524;10.938;2023-10-19T11:00:45;13.70;99.90
41256;DHT22;26989;45.524;10.938;2023-10-19T11:03:18;13.70;99.90
41256;DHT22;26989;45.524;10.938;2023-10-19T11:05:45;13.70;99.90
41256;DHT22;26989;45.524;10.938;2023-10-19T11:08:16;13.60;99.90
41256;DHT22;26989;45.524;10.938;2023-10-19T11:10:45;13.60;99.90
41256;DHT22;26989;45.524;10.938;2023-10-19T11:13:17;13.60;99.90
41256;DHT22;26989;45.524;10.938;2023-10-19T11:15:55;13.60;99.90
41256;DHT22;26989;45.524;10.938;2023-10-19T11:20:56;13.40;99.90
41256;DHT22;26989;45.524;10.938;2023-10-19T11:23:49;13.50;99.90
41256;DHT22;26989;45.524;10.938;2023-10-19T11:26:19;13.50;99.90
41256;DHT22;26989;45.524;10.938;2023-10-19T11:28:47;13.40;99.90
41256;DHT22;26989;45.524;10.938;2023-10-19T11:31:21;13.30;99.90
41256;DHT22;26989;45.524;10.938;2023-10-19T11:33:51;13.30;99.90
41256;DHT22;26989;45.524;10.938;2023-10-19T11:36:21;13.30;99.90
41256;DHT22;26989;45.524;10.938;2023-10-19T11:38:51;13.30;99.90
41256;DHT22;26989;45.524;10.938;2023-10-19T11:41:18;13.20;99.90
41256;DHT22;26989;45.524;10.938;2023-10-19T11:43:47;13.30;99.90
41256;DHT22;26989;45.524;10.938;2023-10-19T11:46:16;13.30;99.90
41256;DHT22;26989;45.524;10.938;2023-10-19T11:48:45;13.40;99.90
41256;DHT22;26989;45.524;10.938;2023-10-19T11:51:12;13.50;99.90
41256;DHT22;26989;45.524;10.938;2023-10-19T11:53:41;13.50;99.90
41256;DHT22;26989;45.524;10.938;2023-10-19T11:56:10;13.60;99.90
41256;DHT22;26989;45.524;10.938;2023-10-19T11:58:40;13.40;99.90
41256;DHT22;26989;45.524;10.938;2023-10-19T12:01:10;13.50;99.90
41256;DHT22;26989;45.524;10.938;2023-10-19T12:03:40;13.60;99.90
41256;DHT22;26989;45.524;10.938;2023-10-19T12:06:09;13.60;99.90
41256;DHT22;26989;45.524;10.938;2023-10-19T12:08:37;13.60;99.90
41256;DHT22;26989;45.524;10.938;2023-10-19T12:11:05;13.50;99.90
41256;DHT22;26989;45.524;10.938;2023-10-19T12:13:46;13.40;99.90
41256;DHT22;26989;45.524;10.938;2023-10-19T12:16:33;13.30;99.90
41256;DHT22;26989;45.524;10.938;2023-10-19T12:19:00;13.20;99.90
41256;DHT22;26989;45.524;10.938;2023-10-19T12:21:27;13.00;99.90
41256;DHT22;26989;45.524;10.938;2023-10-19T12:23:54;13.10;99.90
41256;DHT22;26989;45.524;10.938;2023-10-19T12:26:24;13.70;99.90
41256;DHT22;26989;45.524;10.938;2023-10-19T12:28:51;14.10;99.90
41256;DHT22;26989;45.524;10.938;2023-10-19T12:31:18;14.40;99.90
41256;DHT22;26989;45.524;10.938;2023-10-19T12:33:46;14.20;99.90
41256;DHT22;26989;45.524;10.938;2023-10-19T12:36:13;14.10;99.90
41256;DHT22;26989;45.524;10.938;2023-10-19T12:38:55;14.10;99.90
41256;DHT22;26989;45.524;10.938;2023-10-19T12:41:24;14.10;99.90
41256;DHT22;26989;45.524;10.938;2023-10-19T12:43:51;14.00;99.90
41256;DHT22;26989;45.524;10.938;2023-10-19T12:46:19;14.00;99.90
41256;DHT22;26989;45.524;10.938;2023-10-19T12:48:48;14.00;99.90
41256;DHT22;26989;45.524;10.938;2023-10-19T12:51:15;14.00;99.90
41256;DHT22;26989;45.524;10.938;2023-10-19T12:53:53;14.00;99.90
41256;DHT22;26989;45.524;10.938;2023-10-19T12:56:21;14.00;99.90
41256;DHT22;26989;45.524;10.938;2023-10-19T12:58:51;14.00;99.90
41256;DHT22;26989;45.524;10.938;2023-10-19T13:01:18;13.80;99.90
41256;DHT22;26989;45.524;10.938;2023-10-19T13:03:47;13.80;99.90
41256;DHT22;26989;45.524;10.938;2023-10-19T13:06:17;13.80;99.90
41256;DHT22;26989;45.524;10.938;2023-10-19T13:08:44;13.60;99.90
41256;DHT22;26989;45.524;10.938;2023-10-19T13:11:11;13.60;99.90
41256;DHT22;26989;45.524;10.938;2023-10-19T13:13:45;13.50;99.90
41256;DHT22;26989;45.524;10.938;2023-10-19T13:16:12;13.60;99.90
41256;DHT22;26989;45.524;10.938;2023-10-19T13:18:40;13.60;99.90
41256;DHT22;26989;45.524;10.938;2023-10-19T13:21:07;13.70;99.90
41256;DHT22;26989;45.524;10.938;2023-10-19T13:23:42;13.70;99.90
41256;DHT22;26989;45.524;10.938;2023-10-19T13:26:10;13.80;99.90
41256;DHT22;26989;45.524;10.938;2023-10-19T13:28:45;13.80;99.90
41256;DHT22;26989;45.524;10.938;2023-10-19T13:31:14;13.80;99.90
41256;DHT22;26989;45.524;10.938;2023-10-19T13:33:41;13.70;99.90
41256;DHT22;26989;45.524;10.938;2023-10-19T13:36:10;13.70;99.90
41256;DHT22;26989;45.524;10.938;2023-10-19T13:38:37;13.80;99.90
41256;DHT22;26989;45.524;10.938;2023-10-19T13:41:07;13.70;99.90
41256;DHT22;26989;45.524;10.938;2023-10-19T13:43:40;13.70;99.90
41256;DHT22;26989;45.524;10.938;2023-10-19T13:46:09;13.70;99.90
41256;DHT22;26989;45.524;10.938;2023-10-19T13:48:36;13.60;99.90
41256;DHT22;26989;45.524;10.938;2023-10-19T13:51:05;13.70;99.90
41256;DHT22;26989;45.524;10.938;2023-10-19T13:53:41;13.60;99.90
41256;DHT22;26989;45.524;10.938;2023-10-19T13:56:11;13.60;99.90
41256;DHT22;26989;45.524;10.938;2023-10-19T13:58:39;13.50;99.90
41256;DHT22;26989;45.524;10.938;2023-10-19T14:01:07;13.50;99.90
41256;DHT22;26989;45.524;10.938;2023-10-19T14:03:37;13.70;99.90
41256;DHT22;26989;45.524;10.938;2023-10-19T14:06:12;13.60;99.90
41256;DHT22;26989;45.524;10.938;2023-10-19T14:08:40;13.60;99.90
41256;DHT22;26989;45.524;10.938;2023-10-19T14:11:07;13.40;99.90
41256;DHT22;26989;45.524;10.938;2023-10-19T14:13:35;13.40;99.90
41256;DHT22;26989;45.524;10.938;2023-10-19T14:16:08;13.40;99.90
41256;DHT22;26989;45.524;10.938;2023-10-19T14:18:38;13.40;99.90
41256;DHT22;26989;45.524;10.938;2023-10-19T14:21:14;13.50;99.90
41256;DHT22;26989;45.524;10.938;2023-10-19T14:23:41;13.50;99.90
41256;DHT22;26989;45.524;10.938;2023-10-19T14:26:09;13.50;99.90
41256;DHT22;26989;45.524;10.938;2023-10-19T14:28:37;13.50;99.90
41256;DHT22;26989;45.524;10.938;2023-10-19T14:31:04;13.60;99.90
41256;DHT22;26989;45.524;10.938;2023-10-19T14:33:34;13.50;99.90
41256;DHT22;26989;45.524;10.938;2023-10-19T14:36:04;13.60;99.90
41256;DHT22;26989;45.524;10.938;2023-10-19T14:38:31;13.50;99.90
41256;DHT22;26989;45.524;10.938;2023-10-19T14:40:58;13.60;99.90
41256;DHT22;26989;45.524;10.938;2023-10-19T14:43:25;13.60;99.90
41256;DHT22;26989;45.524;10.938;2023-10-19T14:45:52;13.50;99.90
41256;DHT22;26989;45.524;10.938;2023-10-19T14:48:19;13.40;99.90
41256;DHT22;26989;45.524;10.938;2023-10-19T14:50:48;13.40;99.90
41256;DHT22;26989;45.524;10.938;2023-10-19T14:53:18;13.50;99.90
41256;DHT22;26989;45.524;10.938;2023-10-19T14:55:45;13.50;99.90
41256;DHT22;26989;45.524;10.938;2023-10-19T14:58:14;13.40;99.90
41256;DHT22;26989;45.524;10.938;2023-10-19T15:00:41;13.50;99.90
41256;DHT22;26989;45.524;10.938;2023-10-19T15:03:09;13.50;99.90
41256;DHT22;26989;45.524;10.938;2023-10-19T15:05:37;13.60;99.90
41256;DHT22;26989;45.524;10.938;2023-10-19T15:08:05;13.60;99.90
41256;DHT22;26989;45.524;10.938;2023-10-19T15:10:35;13.60;99.90
41256;DHT22;26989;45.524;10.938;2023-10-19T15:13:03;13.50;99.90
41256;DHT22;26989;45.524;10.938;2023-10-19T15:15:32;13.50;99.90
41256;DHT22;26989;45.524;10.938;2023-10-19T15:17:59;13.50;99.90
41256;DHT22;26989;45.524;10.938;2023-10-19T15:20:27;13.50;99.90
41256;DHT22;26989;45.524;10.938;2023-10-19T15:22:54;13.60;99.90
41256;DHT22;26989;45.524;10.938;2023-10-19T15:25:22;13.60;99.90
41256;DHT22;26989;45.524;10.938;2023-10-19T15:27:53;13.60;99.90
41256;DHT22;26989;45.524;10.938;2023-10-19T15:30:22;13.60;99.90
41256;DHT22;26989;45.524;10.938;2023-10-19T15:32:52;13.60;99.90
41256;DHT22;26989;45.524;10.938;2023-10-19T15:35:20;13.60;99.90
41256;DHT22;26989;45.524;10.938;2023-10-19T15:37:53;13.50;99.90
41256;DHT22;26989;45.524;10.938;2023-10-19T15:40:24;13.50;99.90
41256;DHT22;26989;45.524;10.938;2023-10-19T15:42:53;13.50;99.90
41256;DHT22;26989;45.524;10.938;2023-10-19T15:45:21;13.40;99.90
41256;DHT22;26989;45.524;10.938;2023-10-19T15:47:52;13.30;99.90